createdAt,value
2018-04-16T00:00:25.544Z,82.17
2018-04-16T00:01:29.971Z,82.19
2018-04-16T00:02:34.436Z,82.13
2018-04-16T00:03:39.061Z,82.02
2018-04-16T00:04:43.735Z,82.04
2018-04-16T00:05:48.792Z,82.26
2018-04-16T00:06:53.439Z,82.28
2018-04-16T00:07:58.087Z,82.25
2018-04-16T00:09:02.717Z,82.07
2018-04-16T00:10:07.425Z,81.97
2018-04-16T00:11:12.137Z,81.92
2018-04-16T00:12:17.334Z,81.92
2018-04-16T00:13:21.970Z,81.93
2018-04-16T00:14:26.640Z,81.85
2018-04-16T00:15:31.268Z,81.84
2018-04-16T00:16:35.920Z,81.78
2018-04-16T00:17:40.494Z,81.77
2018-04-16T00:18:45.528Z,81.75
2018-04-16T00:19:50.139Z,81.62
2018-04-16T00:20:54.822Z,81.49
2018-04-16T00:21:59.429Z,81.42
2018-04-16T00:23:04.146Z,81.34
2018-04-16T00:24:08.768Z,81.37
2018-04-16T00:25:13.908Z,81.30
2018-04-16T00:26:18.596Z,81.35
2018-04-16T00:27:23.186Z,81.29
2018-04-16T00:28:27.776Z,81.20
2018-04-16T00:29:32.415Z,81.24
2018-04-16T00:30:37.018Z,81.33
2018-04-16T00:31:46.595Z,81.43
2018-04-16T00:34:58.056Z,81.48
2018-04-16T00:36:21.499Z,82.03
2018-04-16T00:39:32.609Z,82.18
2018-04-16T00:42:43.601Z,82.27
2018-04-16T00:45:54.364Z,82.14
2018-04-16T00:49:05.557Z,82.19
2018-04-16T00:52:20.127Z,82.28
2018-04-16T00:53:29.584Z,82.57
2018-04-16T00:56:43.527Z,82.58
2018-04-16T00:59:56.328Z,82.37
2018-04-16T01:03:06.784Z,82.71
2018-04-16T01:06:20.765Z,82.62
2018-04-16T01:09:31.340Z,82.63
2018-04-16T01:12:43.357Z,82.59
2018-04-16T01:15:54.098Z,82.67
2018-04-16T01:19:10.022Z,83.01
2018-04-16T01:22:26.632Z,83.15
2018-04-16T01:25:37.708Z,83.10
2018-04-16T01:28:49.352Z,82.98
2018-04-16T01:29:59.043Z,82.82
2018-04-16T01:33:10.722Z,82.69
2018-04-16T01:36:21.346Z,82.88
2018-04-16T01:37:31.221Z,83.02
2018-04-16T01:40:42.140Z,82.98
2018-04-16T01:43:54.377Z,82.90
2018-04-16T01:47:05.872Z,82.95
2018-04-16T01:48:15.565Z,83.09
2018-04-16T01:51:26.220Z,83.04
2018-04-16T01:54:39.699Z,83.03
2018-04-16T01:55:49.492Z,83.25
2018-04-16T01:56:58.985Z,83.25
2018-04-16T02:00:15.437Z,83.25
2018-04-16T02:03:31.090Z,83.26
2018-04-16T02:06:42.673Z,83.37
2018-04-16T02:09:54.296Z,83.24
2018-04-16T02:13:05.746Z,83.16
2018-04-16T02:14:15.984Z,83.56
2018-04-16T02:16:24.008Z,83.81
2018-04-16T02:19:35.348Z,83.91
2018-04-16T02:22:45.920Z,83.75
2018-04-16T02:25:58.707Z,83.60
2018-04-16T02:29:09.362Z,83.75
2018-04-16T02:30:19.063Z,83.76
2018-04-16T02:33:30.682Z,83.75
2018-04-16T02:36:43.332Z,84.12
2018-04-16T02:39:54.418Z,84.52
2018-04-16T02:43:05.309Z,84.28
2018-04-16T02:46:16.230Z,84.22
2018-04-16T02:49:31.712Z,84.72
2018-04-16T02:50:41.629Z,85.14
2018-04-16T02:53:54.750Z,85.16
2018-04-16T02:55:04.260Z,84.94
2018-04-16T02:56:14.019Z,84.90
2018-04-16T02:59:25.587Z,84.77
2018-04-16T03:02:38.653Z,84.68
2018-04-16T03:05:51.024Z,84.88
2018-04-16T03:09:02.917Z,84.91
2018-04-16T03:12:18.584Z,85.06
2018-04-16T03:15:31.583Z,85.45
2018-04-16T03:18:43.979Z,85.25
2018-04-16T03:19:53.280Z,85.38
2018-04-16T03:23:04.897Z,85.28
2018-04-16T03:26:17.793Z,85.27
2018-04-16T03:29:32.506Z,85.45
2018-04-16T03:32:49.055Z,85.35
2018-04-16T03:36:01.499Z,85.48
2018-04-16T03:39:12.942Z,85.69
2018-04-16T03:42:27.464Z,85.65
2018-04-16T03:45:39.446Z,85.63
2018-04-16T03:46:49.806Z,85.59
2018-04-16T03:50:04.340Z,85.62
2018-04-16T03:51:12.891Z,85.76
2018-04-16T03:52:21.931Z,85.91
2018-04-16T03:53:27.035Z,86.04
2018-04-16T03:54:31.631Z,86.17
2018-04-16T03:55:36.405Z,86.31
2018-04-16T03:56:41.054Z,86.37
2018-04-16T03:57:45.811Z,86.39
2018-04-16T03:58:50.649Z,86.53
2018-04-16T03:59:55.182Z,86.67
2018-04-16T04:00:59.744Z,86.87
2018-04-16T04:02:04.313Z,87.02
2018-04-16T04:03:08.880Z,87.15
2018-04-16T04:04:13.535Z,87.25
2018-04-16T04:05:18.416Z,87.32
2018-04-16T04:06:22.969Z,87.45
2018-04-16T04:07:27.565Z,87.61
2018-04-16T04:08:32.188Z,87.74
2018-04-16T04:09:37.485Z,87.83
2018-04-16T04:10:42.060Z,87.92
2018-04-16T04:11:46.933Z,88.02
2018-04-16T04:12:51.425Z,88.13
2018-04-16T04:13:55.846Z,88.22
2018-04-16T04:15:00.264Z,88.31
2018-04-16T04:16:04.773Z,88.35
2018-04-16T04:17:09.325Z,88.40
2018-04-16T04:18:14.216Z,88.44
2018-04-16T04:19:18.644Z,88.45
2018-04-16T04:20:23.175Z,88.54
2018-04-16T04:21:27.704Z,88.63
2018-04-16T04:22:36.481Z,88.65
2018-04-16T04:25:52.280Z,88.73
2018-04-16T04:29:05.082Z,88.95
2018-04-16T04:30:40.284Z,89.09
2018-04-16T04:31:44.697Z,89.13
2018-04-16T04:32:49.153Z,89.17
2018-04-16T04:33:53.560Z,89.17
2018-04-16T04:34:57.941Z,89.09
2018-04-16T04:36:02.336Z,89.01
2018-04-16T04:37:07.299Z,88.92
2018-04-16T04:38:11.710Z,88.95
2018-04-16T04:39:16.076Z,88.92
2018-04-16T04:40:20.531Z,88.88
2018-04-16T04:41:24.999Z,88.85
2018-04-16T04:42:29.519Z,88.78
2018-04-16T04:43:34.563Z,88.78
2018-04-16T04:44:39.093Z,88.85
2018-04-16T04:45:43.664Z,88.83
2018-04-16T04:46:48.211Z,88.75
2018-04-16T04:47:52.839Z,88.69
2018-04-16T04:48:57.929Z,88.69
2018-04-16T04:50:02.913Z,88.75
2018-04-16T04:51:08.151Z,88.86
2018-04-16T04:52:12.933Z,88.87
2018-04-16T04:53:17.557Z,88.86
2018-04-16T04:54:22.219Z,88.84
2018-04-16T04:55:27.652Z,88.96
2018-04-16T04:56:32.779Z,88.99
2018-04-16T04:57:37.427Z,88.93
2018-04-16T04:58:42.050Z,88.83
2018-04-16T04:59:46.594Z,88.79
2018-04-16T05:00:50.997Z,88.72
2018-04-16T05:01:55.470Z,88.62
2018-04-16T05:03:00.264Z,88.64
2018-04-16T05:04:04.677Z,88.61
2018-04-16T05:05:09.145Z,88.68
2018-04-16T05:06:14.068Z,88.82
2018-04-16T05:07:18.465Z,88.87
2018-04-16T05:08:23.019Z,88.96
2018-04-16T05:09:28.076Z,89.06
2018-04-16T05:10:33.864Z,89.17
2018-04-16T05:11:38.395Z,89.13
2018-04-16T05:12:42.900Z,89.03
2018-04-16T05:13:47.441Z,89.15
2018-04-16T05:14:52.013Z,89.29
2018-04-16T05:15:57.009Z,89.40
2018-04-16T05:17:01.574Z,89.32
2018-04-16T05:18:06.268Z,89.21
2018-04-16T05:19:10.792Z,89.08
2018-04-16T05:20:15.305Z,89.08
2018-04-16T05:21:20.347Z,89.18
2018-04-16T05:22:25.039Z,89.16
2018-04-16T05:23:29.620Z,89.13
2018-04-16T05:24:34.145Z,89.12
2018-04-16T05:25:39.336Z,88.94
2018-04-16T05:26:43.964Z,88.97
2018-04-16T05:27:49.558Z,89.02
2018-04-16T05:28:54.513Z,88.92
2018-04-16T05:29:58.976Z,88.77
2018-04-16T05:31:03.628Z,88.58
2018-04-16T05:32:08.474Z,88.59
2018-04-16T05:33:13.698Z,88.65
2018-04-16T05:34:18.983Z,88.75
2018-04-16T05:35:23.476Z,88.83
2018-04-16T05:36:28.040Z,88.88
2018-04-16T05:37:32.710Z,88.82
2018-04-16T05:38:37.621Z,88.72
2018-04-16T05:39:42.280Z,88.57
2018-04-16T05:40:47.219Z,88.46
2018-04-16T05:41:51.854Z,88.34
2018-04-16T05:42:56.515Z,88.26
2018-04-16T05:44:01.060Z,88.14
2018-04-16T05:45:05.628Z,88.13
2018-04-16T05:46:10.152Z,88.18
2018-04-16T05:47:15.050Z,88.12
2018-04-16T05:48:19.974Z,88.09
2018-04-16T05:49:24.438Z,88.01
2018-04-16T05:50:29.843Z,87.97
2018-04-16T05:51:34.250Z,87.94
2018-04-16T05:52:38.725Z,88.00
2018-04-16T05:53:43.975Z,87.84
2018-04-16T05:54:48.436Z,87.55
2018-04-16T05:55:52.997Z,87.34
2018-04-16T05:56:57.750Z,87.26
2018-04-16T05:58:02.470Z,87.26
2018-04-16T05:59:07.005Z,87.28
2018-04-16T06:00:12.099Z,87.23
2018-04-16T06:01:16.739Z,87.24
2018-04-16T06:02:21.397Z,87.32
2018-04-16T06:03:26.029Z,87.36
2018-04-16T06:04:30.762Z,87.38
2018-04-16T06:05:35.267Z,87.41
2018-04-16T06:06:40.329Z,87.49
2018-04-16T06:07:44.933Z,87.41
2018-04-16T06:08:49.544Z,87.37
2018-04-16T06:09:54.112Z,87.07
2018-04-16T06:10:58.729Z,86.78
2018-04-16T06:12:03.568Z,86.54
2018-04-16T06:13:08.622Z,86.30
2018-04-16T06:14:13.156Z,85.94
2018-04-16T06:15:17.767Z,85.88
2018-04-16T06:16:22.288Z,85.89
2018-04-16T06:17:26.860Z,85.92
2018-04-16T06:18:31.414Z,85.80
2018-04-16T06:19:36.551Z,85.57
2018-04-16T06:20:41.098Z,85.38
2018-04-16T06:21:45.704Z,85.15
2018-04-16T06:22:50.769Z,84.81
2018-04-16T06:23:56.188Z,84.51
2018-04-16T06:25:01.350Z,84.24
2018-04-16T06:26:06.062Z,84.24
2018-04-16T06:27:10.700Z,84.07
2018-04-16T06:28:15.365Z,83.93
2018-04-16T06:29:19.982Z,83.67
2018-04-16T06:30:24.591Z,83.50
2018-04-16T06:31:29.430Z,83.25
2018-04-16T06:32:33.974Z,82.93
2018-04-16T06:33:38.736Z,82.53
2018-04-16T06:34:43.318Z,82.19
2018-04-16T06:35:47.965Z,81.79
2018-04-16T06:36:52.540Z,81.35
2018-04-16T06:37:57.524Z,80.86
2018-04-16T06:39:02.094Z,80.65
2018-04-16T06:40:06.743Z,80.60
2018-04-16T06:41:12.227Z,78.11
2018-04-16T06:43:19.960Z,71.00
2018-04-16T06:44:25.552Z,70.12
2018-04-16T06:45:31.122Z,70.94
2018-04-16T06:46:35.799Z,71.92
2018-04-16T06:47:40.365Z,73.24
2018-04-16T06:48:44.949Z,74.23
2018-04-16T06:49:49.500Z,75.07
2018-04-16T06:50:54.435Z,75.72
2018-04-16T06:52:00.008Z,76.15
2018-04-16T06:53:04.666Z,75.92
2018-04-16T06:54:09.328Z,75.36
2018-04-16T06:55:14.614Z,75.00
2018-04-16T06:56:19.451Z,74.61
2018-04-16T06:57:24.140Z,74.41
2018-04-16T06:58:28.751Z,74.63
2018-04-16T06:59:33.442Z,74.83
2018-04-16T07:00:38.119Z,74.90
2018-04-16T07:01:42.811Z,74.34
2018-04-16T07:02:47.921Z,73.70
2018-04-16T07:03:52.624Z,72.91
2018-04-16T07:04:58.233Z,72.64
2018-04-16T07:06:02.960Z,72.50
2018-04-16T07:07:07.643Z,72.23
2018-04-16T07:08:12.295Z,72.53
2018-04-16T07:09:18.426Z,72.58
2018-04-16T07:10:23.066Z,72.37
2018-04-16T07:11:27.655Z,71.94
2018-04-16T07:12:32.867Z,71.48
2018-04-16T07:13:37.518Z,71.03
2018-04-16T07:14:42.470Z,70.46
2018-04-16T07:15:47.613Z,70.28
2018-04-16T07:16:52.395Z,69.79
2018-04-16T07:17:57.164Z,69.41
2018-04-16T07:19:01.988Z,69.39
2018-04-16T07:20:07.424Z,69.36
2018-04-16T07:21:12.406Z,69.56
2018-04-16T07:22:17.549Z,69.24
2018-04-16T07:23:23.911Z,68.75
2018-04-16T07:24:29.369Z,68.65
2018-04-16T07:25:36.363Z,68.21
2018-04-16T07:26:44.050Z,67.85
2018-04-16T07:27:58.672Z,67.29
2018-04-16T07:29:07.975Z,66.78
2018-04-16T07:30:12.774Z,66.71
2018-04-16T07:31:17.642Z,66.91
2018-04-16T07:32:23.119Z,66.65
2018-04-16T07:33:31.797Z,66.26
2018-04-16T07:34:37.014Z,66.27
2018-04-16T07:35:41.653Z,65.90
2018-04-16T07:36:46.361Z,65.88
2018-04-16T07:37:51.087Z,65.70
2018-04-16T07:38:55.681Z,65.33
2018-04-16T07:40:00.222Z,64.99
2018-04-16T07:41:05.153Z,64.80
2018-04-16T07:42:10.482Z,64.73
2018-04-16T07:43:15.104Z,65.24
2018-04-16T07:44:19.709Z,65.57
2018-04-16T07:45:24.315Z,65.45
2018-04-16T07:46:28.920Z,65.48
2018-04-16T07:47:33.849Z,65.32
2018-04-16T07:48:39.242Z,65.09
2018-04-16T07:49:44.840Z,65.12
2018-04-16T07:50:49.426Z,64.68
2018-04-16T07:51:54.028Z,64.38
2018-04-16T07:52:58.608Z,63.74
2018-04-16T07:54:03.488Z,64.22
2018-04-16T07:55:08.112Z,63.67
2018-04-16T07:56:12.722Z,63.46
2018-04-16T07:57:17.388Z,63.30
2018-04-16T07:58:21.891Z,63.31
2018-04-16T07:59:26.610Z,62.61
2018-04-16T08:00:31.430Z,62.85
2018-04-16T08:01:36.268Z,62.90
2018-04-16T08:02:41.169Z,62.87
2018-04-16T08:03:46.604Z,62.78
2018-04-16T08:04:51.343Z,62.31
2018-04-16T08:05:56.291Z,61.60
2018-04-16T08:07:01.462Z,61.01
2018-04-16T08:08:06.147Z,60.27
2018-04-16T08:09:10.802Z,60.26
2018-04-16T08:10:15.590Z,60.59
2018-04-16T08:11:20.425Z,60.70
2018-04-16T08:12:25.201Z,60.38
2018-04-16T08:13:30.308Z,60.51
2018-04-16T08:14:34.973Z,60.92
2018-04-16T08:15:39.687Z,60.51
2018-04-16T08:16:44.371Z,60.04
2018-04-16T08:17:49.034Z,59.53
2018-04-16T08:18:53.690Z,58.77
2018-04-16T08:20:00.003Z,59.03
2018-04-16T08:21:04.710Z,59.25
2018-04-16T08:22:09.507Z,59.08
2018-04-16T08:23:14.188Z,58.65
2018-04-16T08:24:18.744Z,58.81
2018-04-16T08:25:23.410Z,59.51
2018-04-16T08:26:28.079Z,59.97
2018-04-16T08:27:32.734Z,60.02
2018-04-16T08:28:37.469Z,60.05
2018-04-16T08:29:42.796Z,60.18
2018-04-16T08:30:47.497Z,60.22
2018-04-16T08:31:52.584Z,60.49
2018-04-16T08:32:57.237Z,60.99
2018-04-16T08:34:02.660Z,61.06
2018-04-16T08:35:07.323Z,61.40
2018-04-16T08:36:12.061Z,61.78
2018-04-16T08:37:16.948Z,61.81
2018-04-16T08:38:22.962Z,61.71
2018-04-16T08:39:28.141Z,61.37
2018-04-16T08:40:32.823Z,60.80
2018-04-16T08:41:38.669Z,60.70
2018-04-16T08:42:43.300Z,60.35
2018-04-16T08:43:48.620Z,59.75
2018-04-16T08:44:53.304Z,59.24
2018-04-16T08:45:59.861Z,59.05
2018-04-16T08:47:05.729Z,58.52
2018-04-16T08:48:10.283Z,59.34
2018-04-16T08:49:14.784Z,59.03
2018-04-16T08:50:19.811Z,58.22
2018-04-16T08:51:24.473Z,57.16
2018-04-16T08:52:29.153Z,56.32
2018-04-16T08:53:33.792Z,55.97
2018-04-16T08:54:40.597Z,55.91
2018-04-16T08:55:45.658Z,56.20
2018-04-16T08:56:50.725Z,55.67
2018-04-16T08:57:55.411Z,55.08
2018-04-16T08:59:00.395Z,54.75
2018-04-16T09:00:05.891Z,54.41
2018-04-16T09:01:10.844Z,54.02
2018-04-16T09:02:15.581Z,54.07
2018-04-16T09:03:20.904Z,54.07
2018-04-16T09:04:25.863Z,54.21
2018-04-16T09:05:30.641Z,53.74
2018-04-16T09:06:35.304Z,53.57
2018-04-16T09:07:40.059Z,53.50
2018-04-16T09:08:44.770Z,53.42
2018-04-16T09:09:49.934Z,52.40
2018-04-16T09:10:55.689Z,51.97
2018-04-16T09:12:00.408Z,51.54
2018-04-16T09:13:05.080Z,51.57
2018-04-16T09:14:09.872Z,51.46
2018-04-16T09:15:14.559Z,51.07
2018-04-16T09:16:19.748Z,50.32
2018-04-16T09:17:25.660Z,50.02
2018-04-16T09:18:30.613Z,49.92
2018-04-16T09:19:35.265Z,51.00
2018-04-16T09:20:41.722Z,51.43
2018-04-16T09:21:46.470Z,51.10
2018-04-16T09:22:51.512Z,50.39
2018-04-16T09:23:56.115Z,49.80
2018-04-16T09:25:00.831Z,49.18
2018-04-16T09:26:05.354Z,48.85
2018-04-16T09:27:09.896Z,48.78
2018-04-16T09:28:14.382Z,48.52
2018-04-16T09:29:19.182Z,48.64
2018-04-16T09:30:23.793Z,48.37
2018-04-16T09:31:28.234Z,48.55
2018-04-16T09:32:32.714Z,49.04
2018-04-16T09:33:37.155Z,49.84
2018-04-16T09:34:41.687Z,50.50
2018-04-16T09:35:46.661Z,50.68
2018-04-16T09:36:51.301Z,50.83
2018-04-16T09:37:56.954Z,51.03
2018-04-16T09:39:01.591Z,50.83
2018-04-16T09:40:06.164Z,50.85
2018-04-16T09:41:10.752Z,50.69
2018-04-16T09:42:15.773Z,51.05
2018-04-16T09:43:20.330Z,51.11
2018-04-16T09:44:24.997Z,51.07
2018-04-16T09:45:29.796Z,51.11
2018-04-16T09:46:34.631Z,51.55
2018-04-16T09:47:39.249Z,52.40
2018-04-16T09:48:44.146Z,52.41
2018-04-16T09:49:48.710Z,52.45
2018-04-16T09:50:53.607Z,52.31
2018-04-16T09:51:58.750Z,51.78
2018-04-16T09:53:03.484Z,52.19
2018-04-16T09:54:08.593Z,53.92
2018-04-16T09:55:13.502Z,54.51
2018-04-16T09:56:18.662Z,55.10
2018-04-16T09:57:23.595Z,55.47
2018-04-16T09:58:28.222Z,55.31
2018-04-16T09:59:32.828Z,55.20
2018-04-16T10:00:41.527Z,55.26
2018-04-16T10:01:50.352Z,55.08
2018-04-16T10:02:58.740Z,55.18
2018-04-16T10:04:03.521Z,54.98
2018-04-16T10:05:08.260Z,55.17
2018-04-16T10:06:12.906Z,55.16
2018-04-16T10:07:17.948Z,55.17
2018-04-16T10:08:22.619Z,54.78
2018-04-16T10:09:28.198Z,54.34
2018-04-16T10:10:33.010Z,54.29
2018-04-16T10:11:37.923Z,54.13
2018-04-16T10:12:42.909Z,53.82
2018-04-16T10:13:48.596Z,53.65
2018-04-16T10:14:53.380Z,53.67
2018-04-16T10:15:58.395Z,53.69
2018-04-16T10:17:03.622Z,53.39
2018-04-16T10:18:08.668Z,53.13
2018-04-16T10:19:13.787Z,52.95
2018-04-16T10:20:18.948Z,52.48
2018-04-16T10:21:23.645Z,52.18
2018-04-16T10:22:28.700Z,52.00
2018-04-16T10:23:33.437Z,51.31
2018-04-16T10:24:38.320Z,50.78
2018-04-16T10:25:42.967Z,50.35
2018-04-16T10:26:48.577Z,49.91
2018-04-16T10:27:53.211Z,49.55
2018-04-16T10:28:58.126Z,49.02
2018-04-16T10:30:02.842Z,49.01
2018-04-16T10:31:07.585Z,49.27
2018-04-16T10:32:13.066Z,49.52
2018-04-16T10:33:18.120Z,49.44
2018-04-16T10:34:22.928Z,49.92
2018-04-16T10:35:27.691Z,50.39
2018-04-16T10:36:32.349Z,51.12
2018-04-16T10:37:37.009Z,52.15
2018-04-16T10:38:42.043Z,52.39
2018-04-16T10:39:46.880Z,52.83
2018-04-16T10:40:51.648Z,53.12
2018-04-16T10:41:56.316Z,53.31
2018-04-16T10:43:01.022Z,53.16
2018-04-16T10:44:05.743Z,52.81
2018-04-16T10:45:10.711Z,51.97
2018-04-16T10:46:15.447Z,51.43
2018-04-16T10:47:20.117Z,51.20
2018-04-16T10:48:24.792Z,51.45
2018-04-16T10:49:29.453Z,52.36
2018-04-16T10:50:34.176Z,52.51
2018-04-16T10:51:39.223Z,53.37
2018-04-16T10:52:43.719Z,54.32
2018-04-16T10:53:48.218Z,54.13
2018-04-16T10:54:52.805Z,54.15
2018-04-16T10:55:57.338Z,53.65
2018-04-16T10:57:01.821Z,53.53
2018-04-16T10:58:06.890Z,53.33
2018-04-16T10:59:11.514Z,53.23
2018-04-16T11:00:16.147Z,53.62
2018-04-16T11:01:20.853Z,54.18
2018-04-16T11:02:25.503Z,53.87
2018-04-16T11:03:30.255Z,53.79
2018-04-16T11:04:35.490Z,53.70
2018-04-16T11:05:40.164Z,54.20
2018-04-16T11:06:45.336Z,54.34
2018-04-16T11:07:50.836Z,54.39
2018-04-16T11:08:55.497Z,54.82
2018-04-16T11:10:00.188Z,55.20
2018-04-16T11:11:05.293Z,55.31
2018-04-16T11:12:10.022Z,54.84
2018-04-16T11:13:14.698Z,54.88
2018-04-16T11:14:19.387Z,54.60
2018-04-16T11:15:23.924Z,54.60
2018-04-16T11:16:28.613Z,54.41
2018-04-16T11:17:33.695Z,54.23
2018-04-16T11:18:38.329Z,54.08
2018-04-16T11:19:42.962Z,53.99
2018-04-16T11:20:47.522Z,53.97
2018-04-16T11:21:52.189Z,54.04
2018-04-16T11:22:56.749Z,54.57
2018-04-16T11:24:01.696Z,54.28
2018-04-16T11:25:06.563Z,53.98
2018-04-16T11:26:11.022Z,53.85
2018-04-16T11:27:15.629Z,53.73
2018-04-16T11:28:20.336Z,53.82
2018-04-16T11:29:25.118Z,54.26
2018-04-16T11:30:30.296Z,54.84
2018-04-16T11:31:34.914Z,54.56
2018-04-16T11:32:39.497Z,54.72
2018-04-16T11:33:44.129Z,54.57
2018-04-16T11:34:48.744Z,53.88
2018-04-16T11:35:53.659Z,53.03
2018-04-16T11:36:58.620Z,52.56
2018-04-16T11:38:03.337Z,51.95
2018-04-16T11:39:07.982Z,51.70
2018-04-16T11:40:12.748Z,52.86
2018-04-16T11:41:17.301Z,52.90
2018-04-16T11:42:21.878Z,52.20
2018-04-16T11:43:26.952Z,51.42
2018-04-16T11:44:31.525Z,50.87
2018-04-16T11:45:36.204Z,50.77
2018-04-16T11:46:40.952Z,50.96
2018-04-16T11:47:45.551Z,50.84
2018-04-16T11:48:50.150Z,50.35
2018-04-16T11:49:55.038Z,50.40
2018-04-16T11:50:59.740Z,50.19
2018-04-16T11:52:04.338Z,49.98
2018-04-16T11:53:08.972Z,49.84
2018-04-16T11:54:13.685Z,50.18
2018-04-16T11:55:18.992Z,50.49
2018-04-16T11:56:24.070Z,50.76
2018-04-16T11:57:29.812Z,50.82
2018-04-16T11:58:34.562Z,51.29
2018-04-16T11:59:40.077Z,51.00
2018-04-16T12:00:44.773Z,50.48
2018-04-16T12:01:49.906Z,50.06
2018-04-16T12:02:54.921Z,49.72
2018-04-16T12:03:59.590Z,49.71
2018-04-16T12:05:05.494Z,49.03
2018-04-16T12:06:11.075Z,48.82
2018-04-16T12:07:15.691Z,48.10
2018-04-16T12:08:20.267Z,48.59
2018-04-16T12:09:25.372Z,48.26
2018-04-16T12:10:30.144Z,48.20
2018-04-16T12:11:34.800Z,48.20
2018-04-16T12:12:39.505Z,47.79
2018-04-16T12:13:44.101Z,48.24
2018-04-16T12:14:48.670Z,47.35
2018-04-16T12:15:54.024Z,46.92
2018-04-16T12:16:58.857Z,45.79
2018-04-16T12:18:03.509Z,45.56
2018-04-16T12:19:08.064Z,45.28
2018-04-16T12:20:12.589Z,44.80
2018-04-16T12:21:17.345Z,44.31
2018-04-16T12:22:22.337Z,44.70
2018-04-16T12:23:27.664Z,44.47
2018-04-16T12:24:32.313Z,44.96
2018-04-16T12:25:36.874Z,45.35
2018-04-16T12:26:41.524Z,45.80
2018-04-16T12:27:46.157Z,46.20
2018-04-16T12:28:50.781Z,45.30
2018-04-16T12:29:55.375Z,45.70
2018-04-16T12:31:00.432Z,46.35
2018-04-16T12:32:05.191Z,46.14
2018-04-16T12:33:09.992Z,46.47
2018-04-16T12:34:14.938Z,46.61
2018-04-16T12:35:19.601Z,46.08
2018-04-16T12:36:24.508Z,46.33
2018-04-16T12:37:29.095Z,46.37
2018-04-16T12:38:33.602Z,46.06
2018-04-16T12:39:38.200Z,45.83
2018-04-16T12:40:43.335Z,45.93
2018-04-16T12:41:48.453Z,45.92
2018-04-16T12:42:53.070Z,45.35
2018-04-16T12:43:57.680Z,45.33
2018-04-16T12:45:02.471Z,45.64
2018-04-16T12:46:07.076Z,45.44
2018-04-16T12:47:12.236Z,45.46
2018-04-16T12:48:16.882Z,45.81
2018-04-16T12:49:21.485Z,45.70
2018-04-16T12:50:27.142Z,46.27
2018-04-16T12:51:32.860Z,46.63
2018-04-16T12:52:37.415Z,47.43
2018-04-16T12:53:42.060Z,47.51
2018-04-16T12:54:46.719Z,46.96
2018-04-16T12:55:51.402Z,46.78
2018-04-16T12:56:56.545Z,46.51
2018-04-16T12:58:01.152Z,47.09
2018-04-16T12:59:06.098Z,47.43
2018-04-16T13:00:12.717Z,46.97
2018-04-16T13:01:17.487Z,46.32
2018-04-16T13:02:22.223Z,45.70
2018-04-16T13:03:26.901Z,45.44
2018-04-16T13:04:31.920Z,45.15
2018-04-16T13:05:37.121Z,45.40
2018-04-16T13:06:41.869Z,45.30
2018-04-16T13:07:46.680Z,45.11
2018-04-16T13:08:51.392Z,44.98
2018-04-16T13:09:57.389Z,45.29
2018-04-16T13:11:02.295Z,45.12
2018-04-16T13:12:07.538Z,44.97
2018-04-16T13:13:12.181Z,44.74
2018-04-16T13:14:16.855Z,44.89
2018-04-16T13:15:21.548Z,44.90
2018-04-16T13:16:26.207Z,44.49
2018-04-16T13:17:32.354Z,44.69
2018-04-16T13:18:39.592Z,45.04
2018-04-16T13:19:44.449Z,44.39
2018-04-16T13:20:49.153Z,44.05
2018-04-16T13:21:53.828Z,44.89
2018-04-16T13:22:58.455Z,44.67
2018-04-16T13:24:03.068Z,44.63
2018-04-16T13:25:08.318Z,44.64
2018-04-16T13:26:12.877Z,44.31
2018-04-16T13:27:19.127Z,44.18
2018-04-16T13:28:23.787Z,43.61
2018-04-16T13:29:28.455Z,43.53
2018-04-16T13:30:33.105Z,42.57
2018-04-16T13:31:38.350Z,42.25
2018-04-16T13:32:42.911Z,42.23
2018-04-16T13:33:48.053Z,42.47
2018-04-16T13:34:52.584Z,42.26
2018-04-16T13:35:57.855Z,42.13
2018-04-16T13:37:02.714Z,42.69
2018-04-16T13:38:07.708Z,42.98
2018-04-16T13:39:12.357Z,43.34
2018-04-16T13:40:16.870Z,42.81
2018-04-16T13:41:21.451Z,42.82
2018-04-16T13:42:26.260Z,42.74
2018-04-16T13:43:30.735Z,42.82
2018-04-16T13:44:35.876Z,42.88
2018-04-16T13:45:40.572Z,42.85
2018-04-16T13:46:46.123Z,42.71
2018-04-16T13:47:50.920Z,42.89
2018-04-16T13:48:55.560Z,43.26
2018-04-16T13:50:00.227Z,43.05
2018-04-16T13:51:04.861Z,43.27
2018-04-16T13:52:09.602Z,43.64
2018-04-16T13:53:14.206Z,43.72
2018-04-16T13:54:19.295Z,43.82
2018-04-16T13:55:24.037Z,43.75
2018-04-16T13:56:29.035Z,43.44
2018-04-16T13:57:34.035Z,42.64
2018-04-16T13:58:38.605Z,42.97
2018-04-16T13:59:43.246Z,42.90
2018-04-16T14:00:47.959Z,42.81
2018-04-16T14:01:52.838Z,42.68
2018-04-16T14:02:57.592Z,43.74
2018-04-16T14:04:02.299Z,43.99
2018-04-16T14:05:06.936Z,43.54
2018-04-16T14:06:12.245Z,43.18
2018-04-16T14:07:16.938Z,42.54
2018-04-16T14:08:22.486Z,43.00
2018-04-16T14:09:27.471Z,42.68
2018-04-16T14:10:32.029Z,42.56
2018-04-16T14:11:36.628Z,41.60
2018-04-16T14:12:41.300Z,42.01
2018-04-16T14:13:46.293Z,41.84
2018-04-16T14:14:51.063Z,42.35
2018-04-16T14:15:57.045Z,42.91
2018-04-16T14:17:02.280Z,43.06
2018-04-16T14:18:06.877Z,43.11
2018-04-16T14:19:11.440Z,42.85
2018-04-16T14:20:16.028Z,42.31
2018-04-16T14:21:20.598Z,42.23
2018-04-16T14:22:25.745Z,41.84
2018-04-16T14:23:30.581Z,41.37
2018-04-16T14:24:35.229Z,40.68
2018-04-16T14:25:40.468Z,40.69
2018-04-16T14:26:45.071Z,39.95
2018-04-16T14:27:49.671Z,39.60
2018-04-16T14:28:54.663Z,39.13
2018-04-16T14:29:59.409Z,38.84
2018-04-16T14:31:04.895Z,38.31
2018-04-16T14:32:10.466Z,38.81
2018-04-16T14:33:15.130Z,38.95
2018-04-16T14:34:19.800Z,39.74
2018-04-16T14:35:26.008Z,40.29
2018-04-16T14:36:30.731Z,40.39
2018-04-16T14:37:35.447Z,40.63
2018-04-16T14:38:40.207Z,41.36
2018-04-16T14:39:44.977Z,41.74
2018-04-16T14:40:49.626Z,42.10
2018-04-16T14:41:55.035Z,42.19
2018-04-16T14:43:00.145Z,42.19
2018-04-16T14:44:04.610Z,42.40
2018-04-16T14:45:09.199Z,42.14
2018-04-16T14:46:13.848Z,42.25
2018-04-16T14:47:18.504Z,42.17
2018-04-16T14:48:23.480Z,41.90
2018-04-16T14:49:28.039Z,41.44
2018-04-16T14:50:32.573Z,41.48
2018-04-16T14:51:37.132Z,41.56
2018-04-16T14:52:41.677Z,40.98
2018-04-16T14:53:46.251Z,41.08
2018-04-16T14:54:51.255Z,41.04
2018-04-16T14:55:55.859Z,40.53
2018-04-16T14:57:00.347Z,40.12
2018-04-16T14:58:04.865Z,39.50
2018-04-16T14:59:09.360Z,39.07
2018-04-16T15:00:13.916Z,39.13
2018-04-16T15:01:19.015Z,38.67
2018-04-16T15:02:23.703Z,38.86
2018-04-16T15:03:28.293Z,38.78
2018-04-16T15:04:34.124Z,38.69
2018-04-16T15:05:39.072Z,39.06
2018-04-16T15:06:43.723Z,39.87
2018-04-16T15:07:49.315Z,40.70
2018-04-16T15:08:54.040Z,41.07
2018-04-16T15:09:58.590Z,40.92
2018-04-16T15:11:03.259Z,40.32
2018-04-16T15:12:07.924Z,39.47
2018-04-16T15:13:12.496Z,38.66
2018-04-16T15:14:17.476Z,38.50
2018-04-16T15:15:22.043Z,39.74
2018-04-16T15:16:26.618Z,40.03
2018-04-16T15:17:31.203Z,40.98
2018-04-16T15:18:35.877Z,41.55
2018-04-16T15:19:40.512Z,42.47
2018-04-16T15:20:46.129Z,42.72
2018-04-16T15:21:50.743Z,42.60
2018-04-16T15:22:55.498Z,42.23
2018-04-16T15:24:00.563Z,42.36
2018-04-16T15:25:05.440Z,42.08
2018-04-16T15:26:10.049Z,41.16
2018-04-16T15:27:15.047Z,40.18
2018-04-16T15:28:19.739Z,39.89
2018-04-16T15:29:24.311Z,39.87
2018-04-16T15:30:28.992Z,39.86
2018-04-16T15:31:33.661Z,39.42
2018-04-16T15:32:38.185Z,39.54
2018-04-16T15:33:43.320Z,39.24
2018-04-16T15:34:47.913Z,39.53
2018-04-16T15:35:52.511Z,39.23
2018-04-16T15:36:57.061Z,39.63
2018-04-16T15:38:01.963Z,39.68
2018-04-16T15:39:06.839Z,39.34
2018-04-16T15:40:11.744Z,39.26
2018-04-16T15:41:16.698Z,39.26
2018-04-16T15:42:21.363Z,38.87
2018-04-16T15:43:27.111Z,38.69
2018-04-16T15:44:31.896Z,38.24
2018-04-16T15:45:36.821Z,38.00
2018-04-16T15:46:42.057Z,37.48
2018-04-16T15:47:46.722Z,37.06
2018-04-16T15:48:51.435Z,36.68
2018-04-16T15:49:56.492Z,37.29
2018-04-16T15:51:01.172Z,38.95
2018-04-16T15:52:05.806Z,39.50
2018-04-16T15:53:10.683Z,38.55
2018-04-16T15:54:15.406Z,38.03
2018-04-16T15:55:20.092Z,38.28
2018-04-16T15:56:24.841Z,39.03
2018-04-16T15:57:29.635Z,39.08
2018-04-16T15:58:34.313Z,38.92
2018-04-16T15:59:39.309Z,38.54
2018-04-16T16:00:43.972Z,38.21
2018-04-16T16:01:48.820Z,38.27
2018-04-16T16:02:54.019Z,38.17